createdAt,value
2019-05-07T00:00:16.785Z,81.59
2019-05-07T00:06:16.781Z,82.61
2019-05-07T00:12:16.782Z,83.41
2019-05-07T00:18:16.810Z,83.83
2019-05-07T00:24:16.783Z,83.75
2019-05-07T00:30:16.761Z,83.24
2019-05-07T00:36:17.209Z,83.17
2019-05-07T00:42:16.774Z,84.11
2019-05-07T00:48:16.796Z,84.60
2019-05-07T00:54:16.782Z,84.76
2019-05-07T01:00:16.761Z,85.01
2019-05-07T01:06:16.807Z,85.46
2019-05-07T01:12:16.811Z,86.18
2019-05-07T01:18:16.799Z,86.52
2019-05-07T01:24:16.784Z,86.98
2019-05-07T01:30:16.824Z,87.53
2019-05-07T01:36:16.899Z,86.81
2019-05-07T01:42:16.823Z,86.94
2019-05-07T01:48:16.798Z,87.13
2019-05-07T01:54:16.911Z,87.36
2019-05-07T02:00:16.819Z,87.79
2019-05-07T02:06:16.834Z,87.89
2019-05-07T02:12:16.824Z,87.96
2019-05-07T02:18:16.802Z,88.23
2019-05-07T02:24:16.793Z,88.25
2019-05-07T02:30:16.798Z,88.29
2019-05-07T02:36:16.850Z,88.49
2019-05-07T02:42:16.850Z,88.71
2019-05-07T02:48:16.815Z,89.18
2019-05-07T02:54:16.891Z,89.01
2019-05-07T03:00:19.098Z,89.41
2019-05-07T03:06:16.938Z,90.02
2019-05-07T03:12:16.835Z,89.62
2019-05-07T03:18:18.990Z,90.03
2019-05-07T03:24:16.849Z,89.63
2019-05-07T03:30:17.495Z,89.37
2019-05-07T03:36:17.501Z,89.40
2019-05-07T03:42:16.844Z,89.68
2019-05-07T03:48:16.895Z,90.10
2019-05-07T03:54:16.853Z,89.90
2019-05-07T04:00:16.835Z,90.01
2019-05-07T04:06:17.861Z,90.12
2019-05-07T04:12:16.861Z,90.20
2019-05-07T04:18:16.860Z,90.38
2019-05-07T04:24:16.851Z,90.48
2019-05-07T04:30:17.931Z,90.58
2019-05-07T04:36:16.873Z,90.61
2019-05-07T04:42:16.864Z,90.11
2019-05-07T04:48:16.888Z,89.49
2019-05-07T04:54:16.856Z,89.20
2019-05-07T05:00:16.878Z,88.96
2019-05-07T05:06:16.902Z,88.18
2019-05-07T05:12:16.898Z,87.07
2019-05-07T05:18:16.954Z,86.15
2019-05-07T05:24:16.885Z,85.81
2019-05-07T05:30:16.903Z,85.06
2019-05-07T05:36:16.880Z,84.13
2019-05-07T05:42:16.904Z,81.78
2019-05-07T05:48:16.922Z,79.88
2019-05-07T05:54:17.022Z,77.18
2019-05-07T06:00:16.899Z,76.76
2019-05-07T06:06:16.892Z,74.68
2019-05-07T06:12:17.048Z,74.00
2019-05-07T06:18:21.078Z,71.48
2019-05-07T06:24:16.909Z,71.65
2019-05-07T06:30:17.959Z,65.09
2019-05-07T06:36:16.931Z,66.11
2019-05-07T06:42:17.030Z,63.80
2019-05-07T06:48:33.555Z,64.06
2019-05-07T06:54:16.916Z,62.77
2019-05-07T07:00:16.937Z,62.72
2019-05-07T07:06:16.990Z,62.12
2019-05-07T07:12:17.082Z,60.06
2019-05-07T07:18:16.951Z,55.49
2019-05-07T07:24:16.947Z,57.70
2019-05-07T07:30:17.068Z,57.37
2019-05-07T07:36:16.990Z,56.57
2019-05-07T07:42:16.929Z,54.02
2019-05-07T07:48:16.952Z,52.31
2019-05-07T07:54:16.977Z,49.13
2019-05-07T08:00:16.920Z,51.40
2019-05-07T08:06:16.978Z,50.33
2019-05-07T08:12:16.948Z,46.87
2019-05-07T08:18:16.957Z,46.73
2019-05-07T08:24:16.949Z,46.44
2019-05-07T08:30:16.973Z,47.13
2019-05-07T08:36:16.968Z,46.28
2019-05-07T08:42:16.945Z,46.28
2019-05-07T08:48:17.007Z,44.64
2019-05-07T08:54:16.987Z,44.26
2019-05-07T09:00:16.986Z,44.46
2019-05-07T09:06:17.000Z,43.39
2019-05-07T09:12:17.067Z,41.67
2019-05-07T09:18:17.040Z,43.33
2019-05-07T09:24:17.362Z,38.09
2019-05-07T09:30:17.127Z,40.28
2019-05-07T09:36:17.049Z,37.21
2019-05-07T09:42:17.099Z,38.36
2019-05-07T09:48:17.039Z,34.96
2019-05-07T09:54:17.112Z,35.77
2019-05-07T10:00:17.044Z,36.15
2019-05-07T10:06:17.052Z,38.76
2019-05-07T10:12:17.053Z,36.83
2019-05-07T10:18:17.066Z,33.27
2019-05-07T10:24:17.127Z,31.55
2019-05-07T10:30:17.375Z,36.21
2019-05-07T10:36:17.217Z,38.43
2019-05-07T10:42:17.096Z,37.79
2019-05-07T10:48:17.149Z,32.17
2019-05-07T10:54:17.098Z,31.77
2019-05-07T11:00:17.096Z,29.01
2019-05-07T11:06:17.110Z,30.79
2019-05-07T11:12:17.169Z,36.36
2019-05-07T11:18:17.139Z,36.60
2019-05-07T11:24:17.111Z,36.29
2019-05-07T11:30:17.141Z,34.44
2019-05-07T11:36:17.121Z,34.49
2019-05-07T11:42:17.155Z,33.27
2019-05-07T11:48:17.137Z,32.12
2019-05-07T11:54:17.124Z,33.61
2019-05-07T12:00:17.164Z,33.79
2019-05-07T12:06:17.138Z,32.05
2019-05-07T12:12:17.187Z,28.19
2019-05-07T12:18:17.168Z,28.26
2019-05-07T12:24:17.171Z,27.91
2019-05-07T12:30:18.179Z,28.52
2019-05-07T12:36:17.195Z,29.63
2019-05-07T12:42:17.425Z,28.97
2019-05-07T12:48:17.202Z,29.02
2019-05-07T12:54:17.212Z,30.26
2019-05-07T13:00:17.199Z,30.21
2019-05-07T13:06:17.237Z,30.04
2019-05-07T13:12:17.258Z,32.36
2019-05-07T13:18:17.221Z,31.85
2019-05-07T13:24:19.211Z,32.51
2019-05-07T13:30:17.233Z,34.29
2019-05-07T13:36:17.232Z,33.56
2019-05-07T13:42:17.226Z,32.72
2019-05-07T13:48:17.321Z,33.42
2019-05-07T13:54:17.255Z,32.82
2019-05-07T14:00:17.276Z,35.17
2019-05-07T14:06:17.267Z,33.34
2019-05-07T14:12:17.258Z,34.12
2019-05-07T14:18:17.287Z,35.67
2019-05-07T14:24:17.292Z,33.06
2019-05-07T14:30:17.290Z,32.25
2019-05-07T14:36:17.308Z,31.94
2019-05-07T14:42:17.319Z,33.79
2019-05-07T14:48:17.282Z,32.29
2019-05-07T14:54:18.391Z,32.35
2019-05-07T15:00:17.288Z,31.72
2019-05-07T15:06:17.325Z,32.07
2019-05-07T15:12:17.453Z,33.62
2019-05-07T15:18:17.324Z,32.71
2019-05-07T15:24:17.281Z,33.35
2019-05-07T15:30:17.285Z,34.14
2019-05-07T15:36:17.315Z,33.10
2019-05-07T15:42:17.320Z,33.39
2019-05-07T15:48:17.348Z,33.42
2019-05-07T15:54:17.322Z,33.04
2019-05-07T16:00:17.345Z,34.00
2019-05-07T16:06:17.343Z,35.04
2019-05-07T16:12:17.340Z,33.22
2019-05-07T16:18:17.368Z,33.95
2019-05-07T16:24:17.383Z,34.22
2019-05-07T16:30:17.358Z,35.76
2019-05-07T16:36:17.374Z,35.66
2019-05-07T16:42:17.372Z,36.55
2019-05-07T16:48:17.409Z,35.42
2019-05-07T16:54:17.388Z,35.98
2019-05-07T17:00:17.351Z,35.73
2019-05-07T17:06:17.360Z,35.67
2019-05-07T17:12:17.382Z,36.40
2019-05-07T17:18:17.408Z,36.65
2019-05-07T17:24:17.384Z,36.27
2019-05-07T17:30:17.394Z,36.65
2019-05-07T17:36:17.423Z,37.96
2019-05-07T17:42:17.478Z,37.71
2019-05-07T17:48:17.403Z,38.26
2019-05-07T17:54:17.461Z,38.86
2019-05-07T18:00:17.452Z,39.33
2019-05-07T18:06:17.424Z,40.27
2019-05-07T18:12:17.427Z,40.80
2019-05-07T18:18:17.422Z,40.97
2019-05-07T18:24:19.566Z,42.42
2019-05-07T18:30:17.508Z,43.58
2019-05-07T18:36:17.487Z,43.87
2019-05-07T18:42:17.450Z,44.20
2019-05-07T18:48:17.460Z,46.51
2019-05-07T18:54:27.901Z,46.84
2019-05-07T19:00:17.479Z,46.65
2019-05-07T19:06:17.467Z,46.39
2019-05-07T19:12:17.538Z,47.14
2019-05-07T19:18:17.553Z,48.20
2019-05-07T19:24:17.493Z,49.49
2019-05-07T19:30:17.474Z,51.06
2019-05-07T19:36:17.523Z,51.98
2019-05-07T19:42:17.481Z,53.09
2019-05-07T19:48:17.585Z,53.27
2019-05-07T19:54:17.561Z,54.18
2019-05-07T20:00:17.525Z,54.58
2019-05-07T20:06:17.525Z,55.46
2019-05-07T20:12:17.503Z,56.19
2019-05-07T20:18:17.510Z,56.77
2019-05-07T20:24:17.509Z,56.45
2019-05-07T20:30:17.534Z,56.19
2019-05-07T20:36:17.537Z,56.38
2019-05-07T20:42:17.610Z,55.98
2019-05-07T20:48:17.540Z,55.05
2019-05-07T20:54:17.615Z,55.16
2019-05-07T21:00:17.546Z,55.13
2019-05-07T21:06:17.587Z,55.69
2019-05-07T21:12:17.562Z,54.97
2019-05-07T21:18:17.617Z,53.42
2019-05-07T21:24:17.628Z,52.37
2019-05-07T21:30:17.743Z,52.32
2019-05-07T21:36:17.637Z,53.07
2019-05-07T21:42:17.556Z,53.86
2019-05-07T21:48:17.653Z,53.88
2019-05-07T21:54:17.599Z,55.34
2019-05-07T22:00:17.603Z,56.32
2019-05-07T22:06:17.613Z,57.87
2019-05-07T22:12:17.663Z,59.88
2019-05-07T22:18:17.627Z,60.56
2019-05-07T22:24:17.655Z,61.18
2019-05-07T22:30:17.575Z,61.53
2019-05-07T22:36:17.558Z,63.98
2019-05-07T22:42:17.618Z,65.21
2019-05-07T22:48:17.717Z,66.65
2019-05-07T22:54:17.609Z,67.90
2019-05-07T23:00:17.606Z,67.55
2019-05-07T23:06:17.618Z,67.20
2019-05-07T23:12:17.669Z,67.41
2019-05-07T23:18:18.649Z,67.83
2019-05-07T23:24:17.634Z,68.98
2019-05-07T23:30:17.693Z,69.99
2019-05-07T23:36:17.618Z,69.94
2019-05-07T23:42:17.615Z,70.49
2019-05-07T23:48:17.619Z,70.90
2019-05-07T23:54:17.644Z,71.32
